sensor_id;sensor_type;location;lat;lon;timestamp;temperature;humidity
13652;DHT22;6899;51.546;6.912;2022-11-18T00:02:18;7.90;99.90
13652;DHT22;6899;51.546;6.912;2022-11-18T00:04:45;7.90;99.90
13652;DHT22;6899;51.546;6.912;2022-11-18T00:07:12;7.90;99.90
13652;DHT22;6899;51.546;6.912;2022-11-18T00:09:39;8.00;99.90
13652;DHT22;6899;51.546;6.912;2022-11-18T00:12:07;8.10;99.90
13652;DHT22;6899;51.546;6.912;2022-11-18T00:14:52;8.10;99.90
13652;DHT22;6899;51.546;6.912;2022-11-18T00:17:19;8.10;99.90
13652;DHT22;6899;51.546;6.912;2022-11-18T00:19:46;8.10;99.90
13652;DHT22;6899;51.546;6.912;2022-11-18T00:22:13;8.10;99.90
13652;DHT22;6899;51.546;6.912;2022-11-18T00:24:40;8.10;99.90
13652;DHT22;6899;51.546;6.912;2022-11-18T00:27:07;8.10;99.90
13652;DHT22;6899;51.546;6.912;2022-11-18T00:29:33;8.10;99.90
13652;DHT22;6899;51.546;6.912;2022-11-18T00:32:01;8.00;99.90
13652;DHT22;6899;51.546;6.912;2022-11-18T00:34:28;8.10;99.90
13652;DHT22;6899;51.546;6.912;2022-11-18T00:36:55;7.90;99.90
13652;DHT22;6899;51.546;6.912;2022-11-18T00:39:22;7.90;99.90
13652;DHT22;6899;51.546;6.912;2022-11-18T00:41:50;7.90;99.90
13652;DHT22;6899;51.546;6.912;2022-11-18T00:44:34;7.90;99.90
13652;DHT22;6899;51.546;6.912;2022-11-18T00:47:03;7.90;99.90
13652;DHT22;6899;51.546;6.912;2022-11-18T00:49:30;7.90;99.90
13652;DHT22;6899;51.546;6.912;2022-11-18T00:51:56;8.00;99.90
13652;DHT22;6899;51.546;6.912;2022-11-18T00:54:23;8.00;99.90
13652;DHT22;6899;51.546;6.912;2022-11-18T00:56:50;7.90;99.90
13652;DHT22;6899;51.546;6.912;2022-11-18T00:59:17;8.00;99.90
13652;DHT22;6899;51.546;6.912;2022-11-18T01:01:43;8.00;99.90
13652;DHT22;6899;51.546;6.912;2022-11-18T01:04:11;8.00;99.90
13652;DHT22;6899;51.546;6.912;2022-11-18T01:06:38;8.00;99.90
13652;DHT22;6899;51.546;6.912;2022-11-18T01:09:05;8.00;99.90
13652;DHT22;6899;51.546;6.912;2022-11-18T01:11:32;7.80;99.90
13652;DHT22;6899;51.546;6.912;2022-11-18T01:14:16;7.70;99.90
13652;DHT22;6899;51.546;6.912;2022-11-18T01:16:43;7.70;99.90
13652;DHT22;6899;51.546;6.912;2022-11-18T01:19:16;7.70;99.90
13652;DHT22;6899;51.546;6.912;2022-11-18T01:21:43;7.80;99.90
13652;DHT22;6899;51.546;6.912;2022-11-18T01:24:10;7.80;99.90
13652;DHT22;6899;51.546;6.912;2022-11-18T01:26:37;7.90;99.90
13652;DHT22;6899;51.546;6.912;2022-11-18T01:29:04;7.90;99.90
13652;DHT22;6899;51.546;6.912;2022-11-18T01:31:30;8.00;99.90
13652;DHT22;6899;51.546;6.912;2022-11-18T01:34:00;7.90;99.90
13652;DHT22;6899;51.546;6.912;2022-11-18T01:36:31;7.90;99.90
13652;DHT22;6899;51.546;6.912;2022-11-18T01:38:58;7.80;99.90
13652;DHT22;6899;51.546;6.912;2022-11-18T01:41:25;7.60;99.90
13652;DHT22;6899;51.546;6.912;2022-11-18T01:43:54;7.40;99.90
13652;DHT22;6899;51.546;6.912;2022-11-18T01:46:25;7.30;99.90
13652;DHT22;6899;51.546;6.912;2022-11-18T01:48:55;7.00;99.90
13652;DHT22;6899;51.546;6.912;2022-11-18T01:51:26;7.00;99.90
13652;DHT22;6899;51.546;6.912;2022-11-18T01:54:05;7.00;99.90
13652;DHT22;6899;51.546;6.912;2022-11-18T01:56:38;7.00;99.90
13652;DHT22;6899;51.546;6.912;2022-11-18T01:59:08;7.10;99.90
13652;DHT22;6899;51.546;6.912;2022-11-18T02:01:36;7.20;99.90
13652;DHT22;6899;51.546;6.912;2022-11-18T02:04:06;7.20;99.90
13652;DHT22;6899;51.546;6.912;2022-11-18T02:06:34;7.20;99.90
13652;DHT22;6899;51.546;6.912;2022-11-18T02:09:03;7.30;99.90
13652;DHT22;6899;51.546;6.912;2022-11-18T02:11:30;7.20;99.90
13652;DHT22;6899;51.546;6.912;2022-11-18T02:14:16;7.30;99.90
13652;DHT22;6899;51.546;6.912;2022-11-18T02:16:57;7.30;99.90
13652;DHT22;6899;51.546;6.912;2022-11-18T02:19:43;7.40;99.90
13652;DHT22;6899;51.546;6.912;2022-11-18T02:22:22;7.60;99.90
13652;DHT22;6899;51.546;6.912;2022-11-18T02:25:04;7.70;99.90
13652;DHT22;6899;51.546;6.912;2022-11-18T02:27:55;7.80;99.90
13652;DHT22;6899;51.546;6.912;2022-11-18T02:30:25;7.80;99.90
13652;DHT22;6899;51.546;6.912;2022-11-18T02:32:56;7.80;99.90
13652;DHT22;6899;51.546;6.912;2022-11-18T02:35:27;7.90;99.90
13652;DHT22;6899;51.546;6.912;2022-11-18T02:37:59;8.10;99.90
13652;DHT22;6899;51.546;6.912;2022-11-18T02:40:30;8.10;99.90
13652;DHT22;6899;51.546;6.912;2022-11-18T02:43:03;8.20;99.90
13652;DHT22;6899;51.546;6.912;2022-11-18T02:45:34;8.30;99.90
13652;DHT22;6899;51.546;6.912;2022-11-18T02:48:05;8.30;99.90
13652;DHT22;6899;51.546;6.912;2022-11-18T02:50:35;8.30;99.90
13652;DHT22;6899;51.546;6.912;2022-11-18T02:53:04;8.40;99.90
13652;DHT22;6899;51.546;6.912;2022-11-18T02:55:34;8.30;99.90
13652;DHT22;6899;51.546;6.912;2022-11-18T02:58:08;8.30;99.90
13652;DHT22;6899;51.546;6.912;2022-11-18T03:00:38;8.20;99.90
13652;DHT22;6899;51.546;6.912;2022-11-18T03:03:23;8.20;99.90
13652;DHT22;6899;51.546;6.912;2022-11-18T03:05:58;8.20;99.90
13652;DHT22;6899;51.546;6.912;2022-11-18T03:08:33;8.20;99.90
13652;DHT22;6899;51.546;6.912;2022-11-18T03:11:07;8.20;99.90
13652;DHT22;6899;51.546;6.912;2022-11-18T03:13:47;8.20;99.90
13652;DHT22;6899;51.546;6.912;2022-11-18T03:16:23;8.20;99.90
13652;DHT22;6899;51.546;6.912;2022-11-18T03:19:00;8.20;99.90
13652;DHT22;6899;51.546;6.912;2022-11-18T03:21:33;8.30;99.90
13652;DHT22;6899;51.546;6.912;2022-11-18T03:24:10;8.20;99.90
13652;DHT22;6899;51.546;6.912;2022-11-18T03:26:42;8.20;99.90
13652;DHT22;6899;51.546;6.912;2022-11-18T03:29:16;8.20;99.90
13652;DHT22;6899;51.546;6.912;2022-11-18T03:31:46;8.20;99.90
13652;DHT22;6899;51.546;6.912;2022-11-18T03:34:17;8.20;99.90
13652;DHT22;6899;51.546;6.912;2022-11-18T03:36:48;8.10;99.90
13652;DHT22;6899;51.546;6.912;2022-11-18T03:39:16;8.10;99.90
13652;DHT22;6899;51.546;6.912;2022-11-18T03:41:50;8.00;99.90
13652;DHT22;6899;51.546;6.912;2022-11-18T03:44:21;8.00;99.90
13652;DHT22;6899;51.546;6.912;2022-11-18T03:46:54;8.00;99.90
13652;DHT22;6899;51.546;6.912;2022-11-18T03:49:32;8.00;99.90
13652;DHT22;6899;51.546;6.912;2022-11-18T03:52:06;8.00;99.90
13652;DHT22;6899;51.546;6.912;2022-11-18T03:54:36;8.10;99.90
13652;DHT22;6899;51.546;6.912;2022-11-18T03:57:09;8.10;99.90
13652;DHT22;6899;51.546;6.912;2022-11-18T03:59:39;8.10;99.90
13652;DHT22;6899;51.546;6.912;2022-11-18T04:02:12;8.20;99.90
13652;DHT22;6899;51.546;6.912;2022-11-18T04:04:41;8.20;99.90
13652;DHT22;6899;51.546;6.912;2022-11-18T04:07:15;8.20;99.90
13652;DHT22;6899;51.546;6.912;2022-11-18T04:09:48;8.20;99.90
13652;DHT22;6899;51.546;6.912;2022-11-18T04:12:18;8.20;99.90
13652;DHT22;6899;51.546;6.912;2022-11-18T04:14:47;8.20;99.90
13652;DHT22;6899;51.546;6.912;2022-11-18T04:17:22;8.20;99.90
13652;DHT22;6899;51.546;6.912;2022-11-18T04:19:49;8.30;99.90
13652;DHT22;6899;51.546;6.912;2022-11-18T04:22:22;8.20;99.90
13652;DHT22;6899;51.546;6.912;2022-11-18T04:24:49;8.20;99.90
13652;DHT22;6899;51.546;6.912;2022-11-18T04:27:16;8.20;99.90
13652;DHT22;6899;51.546;6.912;2022-11-18T04:29:43;8.30;99.90
13652;DHT22;6899;51.546;6.912;2022-11-18T04:32:10;8.30;99.90
13652;DHT22;6899;51.546;6.912;2022-11-18T04:34:38;8.20;99.90
13652;DHT22;6899;51.546;6.912;2022-11-18T04:37:08;8.20;99.90
13652;DHT22;6899;51.546;6.912;2022-11-18T04:39:34;8.20;99.90
13652;DHT22;6899;51.546;6.912;2022-11-18T04:42:01;8.10;99.90
13652;DHT22;6899;51.546;6.912;2022-11-18T04:44:29;8.10;99.90
13652;DHT22;6899;51.546;6.912;2022-11-18T04:46:58;8.00;99.90
13652;DHT22;6899;51.546;6.912;2022-11-18T04:49:34;7.90;99.90
13652;DHT22;6899;51.546;6.912;2022-11-18T04:52:03;7.90;99.90
13652;DHT22;6899;51.546;6.912;2022-11-18T04:54:30;7.80;99.90
13652;DHT22;6899;51.546;6.912;2022-11-18T04:56:57;7.80;99.90
13652;DHT22;6899;51.546;6.912;2022-11-18T04:59:25;7.80;99.90
13652;DHT22;6899;51.546;6.912;2022-11-18T05:01:53;7.90;99.90
13652;DHT22;6899;51.546;6.912;2022-11-18T05:04:22;7.90;99.90
13652;DHT22;6899;51.546;6.912;2022-11-18T05:06:49;7.80;99.90
13652;DHT22;6899;51.546;6.912;2022-11-18T05:09:18;7.90;99.90
13652;DHT22;6899;51.546;6.912;2022-11-18T05:11:45;7.90;99.90
13652;DHT22;6899;51.546;6.912;2022-11-18T05:14:30;8.00;99.90
13652;DHT22;6899;51.546;6.912;2022-11-18T05:16:59;8.10;99.90
13652;DHT22;6899;51.546;6.912;2022-11-18T05:19:26;8.20;99.90
13652;DHT22;6899;51.546;6.912;2022-11-18T05:21:53;8.20;99.90
13652;DHT22;6899;51.546;6.912;2022-11-18T05:24:27;8.20;99.90
13652;DHT22;6899;51.546;6.912;2022-11-18T05:26:54;8.20;99.90
13652;DHT22;6899;51.546;6.912;2022-11-18T05:29:22;8.20;99.90
13652;DHT22;6899;51.546;6.912;2022-11-18T05:31:49;8.00;99.90
13652;DHT22;6899;51.546;6.912;2022-11-18T05:34:17;8.00;99.90
13652;DHT22;6899;51.546;6.912;2022-11-18T05:36:46;8.00;99.90
13652;DHT22;6899;51.546;6.912;2022-11-18T05:39:13;7.90;99.90
13652;DHT22;6899;51.546;6.912;2022-11-18T05:41:41;7.90;99.90
13652;DHT22;6899;51.546;6.912;2022-11-18T05:44:26;7.90;99.90
13652;DHT22;6899;51.546;6.912;2022-11-18T05:46:52;8.00;99.90
13652;DHT22;6899;51.546;6.912;2022-11-18T05:49:20;8.10;99.90
13652;DHT22;6899;51.546;6.912;2022-11-18T05:51:46;8.00;99.90
13652;DHT22;6899;51.546;6.912;2022-11-18T05:54:15;8.10;99.90
13652;DHT22;6899;51.546;6.912;2022-11-18T05:56:44;8.00;99.90
13652;DHT22;6899;51.546;6.912;2022-11-18T05:59:11;8.00;99.90
13652;DHT22;6899;51.546;6.912;2022-11-18T06:01:42;7.90;99.90
13652;DHT22;6899;51.546;6.912;2022-11-18T06:04:13;7.90;99.90
13652;DHT22;6899;51.546;6.912;2022-11-18T06:06:41;7.80;99.90
13652;DHT22;6899;51.546;6.912;2022-11-18T06:09:09;7.70;99.90
13652;DHT22;6899;51.546;6.912;2022-11-18T06:11:40;7.60;99.90
13652;DHT22;6899;51.546;6.912;2022-11-18T06:14:13;7.40;99.90
13652;DHT22;6899;51.546;6.912;2022-11-18T06:16:45;7.30;99.90
13652;DHT22;6899;51.546;6.912;2022-11-18T06:19:13;7.20;99.90
13652;DHT22;6899;51.546;6.912;2022-11-18T06:21:44;7.00;99.90
13652;DHT22;6899;51.546;6.912;2022-11-18T06:24:12;6.80;99.90
13652;DHT22;6899;51.546;6.912;2022-11-18T06:26:40;6.80;99.90
13652;DHT22;6899;51.546;6.912;2022-11-18T06:29:09;6.70;99.90
13652;DHT22;6899;51.546;6.912;2022-11-18T06:31:42;6.70;99.90
13652;DHT22;6899;51.546;6.912;2022-11-18T06:34:09;6.80;99.90
13652;DHT22;6899;51.546;6.912;2022-11-18T06:36:36;6.80;99.90
13652;DHT22;6899;51.546;6.912;2022-11-18T06:39:04;6.90;99.90
13652;DHT22;6899;51.546;6.912;2022-11-18T06:41:31;6.90;99.90
13652;DHT22;6899;51.546;6.912;2022-11-18T06:43:58;7.00;99.90
13652;DHT22;6899;51.546;6.912;2022-11-18T06:46:30;7.00;99.90
13652;DHT22;6899;51.546;6.912;2022-11-18T06:49:15;7.20;99.90
13652;DHT22;6899;51.546;6.912;2022-11-18T06:51:42;7.30;99.90
13652;DHT22;6899;51.546;6.912;2022-11-18T06:54:09;7.40;99.90
13652;DHT22;6899;51.546;6.912;2022-11-18T06:56:36;7.50;99.90
13652;DHT22;6899;51.546;6.912;2022-11-18T06:59:03;7.60;99.90
13652;DHT22;6899;51.546;6.912;2022-11-18T07:01:31;7.70;99.90
13652;DHT22;6899;51.546;6.912;2022-11-18T07:03:59;7.70;99.90
13652;DHT22;6899;51.546;6.912;2022-11-18T07:06:29;7.80;99.90
13652;DHT22;6899;51.546;6.912;2022-11-18T07:08:58;7.80;99.90
13652;DHT22;6899;51.546;6.912;2022-11-18T07:11:25;7.90;99.90
13652;DHT22;6899;51.546;6.912;2022-11-18T07:13:52;8.00;99.90
13652;DHT22;6899;51.546;6.912;2022-11-18T07:16:21;8.00;99.90
13652;DHT22;6899;51.546;6.912;2022-11-18T07:18:49;8.00;99.90
13652;DHT22;6899;51.546;6.912;2022-11-18T07:21:18;8.00;99.90
13652;DHT22;6899;51.546;6.912;2022-11-18T07:23:47;8.00;99.90
13652;DHT22;6899;51.546;6.912;2022-11-18T07:26:18;8.00;99.90
13652;DHT22;6899;51.546;6.912;2022-11-18T07:28:47;8.10;99.90
13652;DHT22;6899;51.546;6.912;2022-11-18T07:31:19;8.10;99.90
13652;DHT22;6899;51.546;6.912;2022-11-18T07:33:48;8.20;99.90
13652;DHT22;6899;51.546;6.912;2022-11-18T07:36:19;8.10;99.90
13652;DHT22;6899;51.546;6.912;2022-11-18T07:38:47;8.20;99.90
13652;DHT22;6899;51.546;6.912;2022-11-18T07:41:15;8.20;99.90
13652;DHT22;6899;51.546;6.912;2022-11-18T07:43:43;8.20;99.90
13652;DHT22;6899;51.546;6.912;2022-11-18T07:46:11;8.20;99.90
13652;DHT22;6899;51.546;6.912;2022-11-18T07:48:42;8.30;99.90
13652;DHT22;6899;51.546;6.912;2022-11-18T07:51:10;8.40;99.90
13652;DHT22;6899;51.546;6.912;2022-11-18T07:53:43;8.50;99.90
13652;DHT22;6899;51.546;6.912;2022-11-18T07:56:12;8.60;99.90
13652;DHT22;6899;51.546;6.912;2022-11-18T07:58:39;8.60;99.90
13652;DHT22;6899;51.546;6.912;2022-11-18T08:01:07;8.50;99.90
13652;DHT22;6899;51.546;6.912;2022-11-18T08:03:34;8.50;99.90
13652;DHT22;6899;51.546;6.912;2022-11-18T08:06:03;8.60;99.90
13652;DHT22;6899;51.546;6.912;2022-11-18T08:08:31;8.50;99.90
13652;DHT22;6899;51.546;6.912;2022-11-18T08:10:59;8.50;99.90
13652;DHT22;6899;51.546;6.912;2022-11-18T08:13:28;8.60;99.90
13652;DHT22;6899;51.546;6.912;2022-11-18T08:15:55;8.60;99.90
13652;DHT22;6899;51.546;6.912;2022-11-18T08:18:26;8.70;99.90
13652;DHT22;6899;51.546;6.912;2022-11-18T08:20:53;8.90;99.90
13652;DHT22;6899;51.546;6.912;2022-11-18T08:23:20;9.00;99.90
13652;DHT22;6899;51.546;6.912;2022-11-18T08:25:47;9.20;99.90
13652;DHT22;6899;51.546;6.912;2022-11-18T08:28:14;9.30;99.90
13652;DHT22;6899;51.546;6.912;2022-11-18T08:30:42;9.30;99.90
13652;DHT22;6899;51.546;6.912;2022-11-18T08:33:09;9.30;99.90
13652;DHT22;6899;51.546;6.912;2022-11-18T08:35:35;9.50;99.90
13652;DHT22;6899;51.546;6.912;2022-11-18T08:38:05;9.70;99.90
13652;DHT22;6899;51.546;6.912;2022-11-18T08:40:33;9.80;99.90
13652;DHT22;6899;51.546;6.912;2022-11-18T08:42:59;9.80;99.90
13652;DHT22;6899;51.546;6.912;2022-11-18T08:45:29;9.80;99.90
13652;DHT22;6899;51.546;6.912;2022-11-18T08:48:00;9.70;99.90
13652;DHT22;6899;51.546;6.912;2022-11-18T08:50:27;9.60;99.90
13652;DHT22;6899;51.546;6.912;2022-11-18T08:52:57;9.60;99.90
13652;DHT22;6899;51.546;6.912;2022-11-18T08:55:24;9.40;99.90
13652;DHT22;6899;51.546;6.912;2022-11-18T08:57:50;9.60;99.90
13652;DHT22;6899;51.546;6.912;2022-11-18T09:00:18;9.60;99.90
13652;DHT22;6899;51.546;6.912;2022-11-18T09:02:45;9.50;99.90
13652;DHT22;6899;51.546;6.912;2022-11-18T09:05:16;9.50;99.90
13652;DHT22;6899;51.546;6.912;2022-11-18T09:07:43;9.50;99.90
13652;DHT22;6899;51.546;6.912;2022-11-18T09:10:10;9.50;99.90
13652;DHT22;6899;51.546;6.912;2022-11-18T09:12:37;9.40;99.90
13652;DHT22;6899;51.546;6.912;2022-11-18T09:15:10;9.40;99.90
13652;DHT22;6899;51.546;6.912;2022-11-18T09:17:37;9.30;99.90
13652;DHT22;6899;51.546;6.912;2022-11-18T09:20:04;9.40;99.90
13652;DHT22;6899;51.546;6.912;2022-11-18T09:22:34;9.40;99.90
13652;DHT22;6899;51.546;6.912;2022-11-18T09:25:01;9.40;99.90
13652;DHT22;6899;51.546;6.912;2022-11-18T09:27:28;9.50;99.90
13652;DHT22;6899;51.546;6.912;2022-11-18T09:29:55;9.50;99.90
13652;DHT22;6899;51.546;6.912;2022-11-18T09:32:21;9.50;99.90
13652;DHT22;6899;51.546;6.912;2022-11-18T09:34:48;9.50;99.90
13652;DHT22;6899;51.546;6.912;2022-11-18T09:37:15;9.60;99.90
13652;DHT22;6899;51.546;6.912;2022-11-18T09:39:43;9.50;99.90
13652;DHT22;6899;51.546;6.912;2022-11-18T09:42:22;9.80;99.90
13652;DHT22;6899;51.546;6.912;2022-11-18T09:45:04;9.90;99.90
13652;DHT22;6899;51.546;6.912;2022-11-18T09:47:33;10.00;99.90
13652;DHT22;6899;51.546;6.912;2022-11-18T09:50:02;10.30;99.90
13652;DHT22;6899;51.546;6.912;2022-11-18T09:52:32;10.50;99.90
13652;DHT22;6899;51.546;6.912;2022-11-18T09:55:11;10.40;99.90
13652;DHT22;6899;51.546;6.912;2022-11-18T09:57:39;10.50;99.90
13652;DHT22;6899;51.546;6.912;2022-11-18T10:00:13;10.60;99.90
13652;DHT22;6899;51.546;6.912;2022-11-18T10:02:47;10.50;99.90
13652;DHT22;6899;51.546;6.912;2022-11-18T10:05:19;10.40;99.90
13652;DHT22;6899;51.546;6.912;2022-11-18T10:07:58;10.40;99.90
13652;DHT22;6899;51.546;6.912;2022-11-18T10:10:37;10.30;99.90
13652;DHT22;6899;51.546;6.912;2022-11-18T10:13:13;10.10;99.90
13652;DHT22;6899;51.546;6.912;2022-11-18T10:15:48;10.10;99.90
13652;DHT22;6899;51.546;6.912;2022-11-18T10:18:24;9.90;99.90
13652;DHT22;6899;51.546;6.912;2022-11-18T10:20:56;9.80;99.90
13652;DHT22;6899;51.546;6.912;2022-11-18T10:23:32;9.80;99.90
13652;DHT22;6899;51.546;6.912;2022-11-18T10:26:04;9.60;99.90
13652;DHT22;6899;51.546;6.912;2022-11-18T10:28:31;9.50;99.90
13652;DHT22;6899;51.546;6.912;2022-11-18T10:31:04;9.60;99.90
13652;DHT22;6899;51.546;6.912;2022-11-18T10:33:31;9.70;99.90
13652;DHT22;6899;51.546;6.912;2022-11-18T10:36:09;10.00;99.90
13652;DHT22;6899;51.546;6.912;2022-11-18T10:38:37;10.20;99.90
13652;DHT22;6899;51.546;6.912;2022-11-18T10:41:09;10.30;99.90
13652;DHT22;6899;51.546;6.912;2022-11-18T10:43:43;10.50;99.90
13652;DHT22;6899;51.546;6.912;2022-11-18T10:46:17;10.60;99.90
13652;DHT22;6899;51.546;6.912;2022-11-18T10:48:44;10.70;99.90
13652;DHT22;6899;51.546;6.912;2022-11-18T10:51:20;10.80;99.90
13652;DHT22;6899;51.546;6.912;2022-11-18T10:53:48;10.90;99.90
13652;DHT22;6899;51.546;6.912;2022-11-18T10:56:16;10.90;99.90
13652;DHT22;6899;51.546;6.912;2022-11-18T10:58:45;11.10;99.90
13652;DHT22;6899;51.546;6.912;2022-11-18T11:01:19;11.10;99.90
13652;DHT22;6899;51.546;6.912;2022-11-18T11:03:57;11.00;99.90
13652;DHT22;6899;51.546;6.912;2022-11-18T11:06:32;10.80;99.90
13652;DHT22;6899;51.546;6.912;2022-11-18T11:09:07;10.80;99.90
13652;DHT22;6899;51.546;6.912;2022-11-18T11:11:37;10.70;99.90
13652;DHT22;6899;51.546;6.912;2022-11-18T11:14:22;10.70;99.90
13652;DHT22;6899;51.546;6.912;2022-11-18T11:17:00;10.90;99.90
13652;DHT22;6899;51.546;6.912;2022-11-18T11:19:34;11.00;99.90
13652;DHT22;6899;51.546;6.912;2022-11-18T11:22:08;11.20;99.90
13652;DHT22;6899;51.546;6.912;2022-11-18T11:24:35;11.20;99.90
13652;DHT22;6899;51.546;6.912;2022-11-18T11:30:03;11.20;99.90
13652;DHT22;6899;51.546;6.912;2022-11-18T11:32:59;11.00;99.90
13652;DHT22;6899;51.546;6.912;2022-11-18T11:35:33;11.10;99.90
13652;DHT22;6899;51.546;6.912;2022-11-18T11:38:08;10.90;99.90
13652;DHT22;6899;51.546;6.912;2022-11-18T11:40:45;10.70;99.90
13652;DHT22;6899;51.546;6.912;2022-11-18T11:43:25;10.60;99.90
13652;DHT22;6899;51.546;6.912;2022-11-18T11:46:08;10.50;99.90
13652;DHT22;6899;51.546;6.912;2022-11-18T11:48:51;10.60;99.90
13652;DHT22;6899;51.546;6.912;2022-11-18T11:51:25;10.90;99.90
13652;DHT22;6899;51.546;6.912;2022-11-18T11:54:13;11.30;99.90
13652;DHT22;6899;51.546;6.912;2022-11-18T11:56:44;11.50;99.90
13652;DHT22;6899;51.546;6.912;2022-11-18T11:59:21;11.50;99.90
13652;DHT22;6899;51.546;6.912;2022-11-18T12:01:58;11.60;99.90
13652;DHT22;6899;51.546;6.912;2022-11-18T12:04:40;11.50;99.90
13652;DHT22;6899;51.546;6.912;2022-11-18T12:07:14;11.40;99.90
13652;DHT22;6899;51.546;6.912;2022-11-18T12:10:03;11.30;99.90
13652;DHT22;6899;51.546;6.912;2022-11-18T12:12:39;11.30;99.90
13652;DHT22;6899;51.546;6.912;2022-11-18T12:15:30;11.30;99.90
13652;DHT22;6899;51.546;6.912;2022-11-18T12:18:09;11.70;99.90
13652;DHT22;6899;51.546;6.912;2022-11-18T12:20:43;12.10;99.90
13652;DHT22;6899;51.546;6.912;2022-11-18T12:23:17;12.00;99.90
13652;DHT22;6899;51.546;6.912;2022-11-18T12:28:38;12.50;99.90
13652;DHT22;6899;51.546;6.912;2022-11-18T12:31:28;12.60;99.90
13652;DHT22;6899;51.546;6.912;2022-11-18T12:33:58;12.90;99.90
13652;DHT22;6899;51.546;6.912;2022-11-18T12:36:27;13.20;99.90
13652;DHT22;6899;51.546;6.912;2022-11-18T12:38:55;13.30;99.90
13652;DHT22;6899;51.546;6.912;2022-11-18T12:41:50;13.40;99.90
13652;DHT22;6899;51.546;6.912;2022-11-18T12:44:35;13.60;99.90
13652;DHT22;6899;51.546;6.912;2022-11-18T12:47:05;13.70;99.90
13652;DHT22;6899;51.546;6.912;2022-11-18T12:50:10;13.70;99.90
13652;DHT22;6899;51.546;6.912;2022-11-18T12:52:46;13.70;99.90
13652;DHT22;6899;51.546;6.912;2022-11-18T12:55:15;13.50;99.90
13652;DHT22;6899;51.546;6.912;2022-11-18T12:57:43;13.20;99.90
13652;DHT22;6899;51.546;6.912;2022-11-18T13:00:26;13.00;99.90
13652;DHT22;6899;51.546;6.912;2022-11-18T13:02:56;13.10;99.90
13652;DHT22;6899;51.546;6.912;2022-11-18T13:05:24;12.70;99.90
13652;DHT22;6899;51.546;6.912;2022-11-18T13:07:55;13.00;99.90
13652;DHT22;6899;51.546;6.912;2022-11-18T13:10:47;13.10;99.90
13652;DHT22;6899;51.546;6.912;2022-11-18T13:13:22;13.20;99.90
13652;DHT22;6899;51.546;6.912;2022-11-18T13:15:58;13.40;99.90
13652;DHT22;6899;51.546;6.912;2022-11-18T13:18:51;13.50;99.90
13652;DHT22;6899;51.546;6.912;2022-11-18T13:21:28;13.40;99.90
13652;DHT22;6899;51.546;6.912;2022-11-18T13:24:13;13.60;99.90
13652;DHT22;6899;51.546;6.912;2022-11-18T13:26:42;13.40;99.90
13652;DHT22;6899;51.546;6.912;2022-11-18T13:29:37;13.40;99.90
13652;DHT22;6899;51.546;6.912;2022-11-18T13:32:17;13.50;99.90
13652;DHT22;6899;51.546;6.912;2022-11-18T13:34:49;13.40;99.90
13652;DHT22;6899;51.546;6.912;2022-11-18T13:37:18;13.30;99.90
13652;DHT22;6899;51.546;6.912;2022-11-18T13:39:46;13.40;99.90
13652;DHT22;6899;51.546;6.912;2022-11-18T13:42:17;13.50;99.90
13652;DHT22;6899;51.546;6.912;2022-11-18T13:44:50;13.70;99.90
13652;DHT22;6899;51.546;6.912;2022-11-18T13:47:33;13.70;99.90
13652;DHT22;6899;51.546;6.912;2022-11-18T13:50:10;13.90;99.90
13652;DHT22;6899;51.546;6.912;2022-11-18T13:52:41;13.90;99.90
13652;DHT22;6899;51.546;6.912;2022-11-18T13:55:14;13.60;99.90
13652;DHT22;6899;51.546;6.912;2022-11-18T13:57:45;13.30;99.90
13652;DHT22;6899;51.546;6.912;2022-11-18T14:00:22;13.50;99.90
13652;DHT22;6899;51.546;6.912;2022-11-18T14:02:54;13.20;99.90
13652;DHT22;6899;51.546;6.912;2022-11-18T14:05:27;13.20;99.90
13652;DHT22;6899;51.546;6.912;2022-11-18T14:07:58;13.10;99.90
13652;DHT22;6899;51.546;6.912;2022-11-18T14:10:37;12.70;99.90
13652;DHT22;6899;51.546;6.912;2022-11-18T14:13:19;12.40;99.90
13652;DHT22;6899;51.546;6.912;2022-11-18T14:15:46;12.50;99.90
13652;DHT22;6899;51.546;6.912;2022-11-18T14:18:19;12.50;99.90
13652;DHT22;6899;51.546;6.912;2022-11-18T14:20:52;12.40;99.90
13652;DHT22;6899;51.546;6.912;2022-11-18T14:23:25;12.30;99.90
13652;DHT22;6899;51.546;6.912;2022-11-18T14:25:54;12.20;99.90
13652;DHT22;6899;51.546;6.912;2022-11-18T14:28:26;11.70;99.90
13652;DHT22;6899;51.546;6.912;2022-11-18T14:31:01;11.40;99.90
13652;DHT22;6899;51.546;6.912;2022-11-18T14:33:33;11.10;99.90
13652;DHT22;6899;51.546;6.912;2022-11-18T14:36:08;10.90;99.90
13652;DHT22;6899;51.546;6.912;2022-11-18T14:38:42;11.10;99.90
13652;DHT22;6899;51.546;6.912;2022-11-18T14:41:14;11.10;99.90
13652;DHT22;6899;51.546;6.912;2022-11-18T14:44:04;11.20;99.90
13652;DHT22;6899;51.546;6.912;2022-11-18T14:46:32;11.20;99.90
13652;DHT22;6899;51.546;6.912;2022-11-18T14:49:03;11.20;99.90
13652;DHT22;6899;51.546;6.912;2022-11-18T14:51:33;11.30;99.90
13652;DHT22;6899;51.546;6.912;2022-11-18T14:53:59;11.20;99.90
13652;DHT22;6899;51.546;6.912;2022-11-18T14:56:30;11.30;99.90
13652;DHT22;6899;51.546;6.912;2022-11-18T14:58:58;11.20;99.90
13652;DHT22;6899;51.546;6.912;2022-11-18T15:01:25;11.10;99.90
13652;DHT22;6899;51.546;6.912;2022-11-18T15:03:54;11.10;99.90
13652;DHT22;6899;51.546;6.912;2022-11-18T15:06:21;11.00;99.90
13652;DHT22;6899;51.546;6.912;2022-11-18T15:08:52;10.80;99.90
13652;DHT22;6899;51.546;6.912;2022-11-18T15:11:19;10.40;99.90
13652;DHT22;6899;51.546;6.912;2022-11-18T15:13:55;10.00;99.90
13652;DHT22;6899;51.546;6.912;2022-11-18T15:16:27;9.70;99.90
13652;DHT22;6899;51.546;6.912;2022-11-18T15:18:56;9.40;99.90
13652;DHT22;6899;51.546;6.912;2022-11-18T15:21:25;9.10;99.90
13652;DHT22;6899;51.546;6.912;2022-11-18T15:23:55;8.80;99.90
13652;DHT22;6899;51.546;6.912;2022-11-18T15:26:27;8.60;99.90
13652;DHT22;6899;51.546;6.912;2022-11-18T15:28:54;8.40;99.90
13652;DHT22;6899;51.546;6.912;2022-11-18T15:31:22;8.20;99.90
13652;DHT22;6899;51.546;6.912;2022-11-18T15:33:50;8.10;99.90
13652;DHT22;6899;51.546;6.912;2022-11-18T15:36:18;7.90;99.90
13652;DHT22;6899;51.546;6.912;2022-11-18T15:38:46;7.80;99.90
13652;DHT22;6899;51.546;6.912;2022-11-18T15:41:18;7.80;99.90
13652;DHT22;6899;51.546;6.912;2022-11-18T15:43:52;7.70;99.90
13652;DHT22;6899;51.546;6.912;2022-11-18T15:46:21;7.70;99.90
13652;DHT22;6899;51.546;6.912;2022-11-18T15:48:50;7.70;99.90
13652;DHT22;6899;51.546;6.912;2022-11-18T15:51:17;7.70;99.90
13652;DHT22;6899;51.546;6.912;2022-11-18T15:53:44;7.80;99.90
13652;DHT22;6899;51.546;6.912;2022-11-18T15:56:26;7.70;99.90
13652;DHT22;6899;51.546;6.912;2022-11-18T15:58:53;7.60;99.90
13652;DHT22;6899;51.546;6.912;2022-11-18T16:01:21;7.40;99.90
13652;DHT22;6899;51.546;6.912;2022-11-18T16:03:49;7.30;99.90
13652;DHT22;6899;51.546;6.912;2022-11-18T16:06:16;7.20;99.90
13652;DHT22;6899;51.546;6.912;2022-11-18T16:08:46;7.10;99.90
13652;DHT22;6899;51.546;6.912;2022-11-18T16:11:20;7.00;99.90
13652;DHT22;6899;51.546;6.912;2022-11-18T16:14:07;6.90;99.90
13652;DHT22;6899;51.546;6.912;2022-11-18T16:16:42;6.90;99.90
13652;DHT22;6899;51.546;6.912;2022-11-18T16:19:10;6.90;99.90
13652;DHT22;6899;51.546;6.912;2022-11-18T16:21:39;6.80;99.90
13652;DHT22;6899;51.546;6.912;2022-11-18T16:24:10;6.80;99.90
13652;DHT22;6899;51.546;6.912;2022-11-18T16:26:40;7.00;99.90
13652;DHT22;6899;51.546;6.912;2022-11-18T16:29:15;6.90;99.90
13652;DHT22;6899;51.546;6.912;2022-11-18T16:31:42;6.70;99.90